Aérodrome :
LOGIN :

S'inscrire | Disclaimer

   EN    FR    IT 

 










Légende :    VFR   VFR Marginal   IFR   IFR Intensif   IFR Très Intensif
Visi : 
Plafond : 
>= 8 km
>= 3000ft
5 à 8 km
1000 à 3000 ft
1500m à 5 km
500 à 1000 ft
800 à 1500m
200 à 500 ft
< 800m
< 200 ft
Symboles :   Orages  Brouillard  Fortes neiges  Fortes précipitations  Vent > 20 kt
SIGMETs :   Divers  Orages  Givrage  Turbulence  Onde Orograph.  Cendres Volcan.






- Altitude de l'aérodrome : 106 ft
- Code IATA : NRN


EDLV - Weeze

DERNIER METAR :
  • 051420Z 16006KT 140V200 9999 FEW041TCU 24/14 Q1007

METARs EXPIRÉS :
  • 051350Z VRB03KT 9999 SCT058TCU 24/14 Q1007
  • 051320Z 21005KT 180V240 9999 SCT057TCU 23/15 Q1007
  • 051250Z 14005KT 080V170 9999 SCT030 22/14 Q1007
  • 051220Z VRB03KT 9999 SCT041 22/15 Q1008
  • 051150Z 17004KT 130V220 9999 SCT036TCU 22/14 Q1008

TAF TAF EDLV
Valide du 05 à 12h jusqu'au 06 à 12h UTC


051100Z 0512/0612 VRB03KT 9999 SCT040
TEMPO 0512/0518 20005KT SHRA BKN030CB
PROB30
TEMPO 0512/0517 4000 TSRA
BECMG 0520/0523 14006KT
TEMPO 0604/0609 RA BKN008
BECMG 0607/0610 21011KT
TEMPO 0609/0612 SHRA BKN012CB
PROB30
TEMPO 0610/0612 TSRA



MET'MAP, la Météo Aéronautique d'un coup d'oeil ! - Copyright ORBIFLY Décembre 2007 - Disclaimer

ORBIFLY MET'MAP TEAM :

Programmation & Développement : Alexandra Zaïnal
Sur une idée originale de : Baudouin d'Aumeries
Assistance à la programmation : Marc-Olivier Méhu
Soutien technique & logistique : Manuel Goepfert

Contact : metmap@orbifly.com




SOURCES & CREDITS :

   NOAA